<?xml version="1.0" encoding="UTF-8"?><gpx version="1.0"><name>FlightAirMap GPX Feed</name><trk><name>AAL2052 American Airlines | N656AW A320-214 (A320) | KCLT - KDSM</name><number>1</number><trkseg><trkpt lat="35.2183" lon="-80.9446"><ele>738.37</ele><time>2026-04-20T05:43:50+00:00</time></trkpt><trkpt lat="35.2183" lon="-80.9439"><ele>737.76</ele><time>2026-04-20T05:49:59+00:00</time></trkpt><trkpt lat="35.2138" lon="-80.9453"><ele>730.68</ele><time>2026-04-20T05:54:52+00:00</time></trkpt><trkpt lat="35.2113" lon="-80.9556"><ele>723.66</ele><time>2026-04-20T05:59:39+00:00</time></trkpt><trkpt lat="35.2127" lon="-80.9664"><ele>740.05</ele><time>2026-04-20T06:05:03+00:00</time></trkpt><trkpt lat="35.3997" lon="-81.2289"><ele>12251.3</ele><time>2026-04-20T06:09:52+00:00</time></trkpt><trkpt lat="35.4828" lon="-81.3577"><ele>16572.4</ele><time>2026-04-20T06:14:34+00:00</time></trkpt><trkpt lat="35.8645" lon="-81.7424"><ele>27078.6</ele><time>2026-04-20T06:19:47+00:00</time></trkpt><trkpt lat="36.5954" lon="-82.3927"><ele>38010.1</ele><time>2026-04-20T06:25:00+00:00</time></trkpt><trkpt lat="36.7585" lon="-82.5399"><ele>38014.1</ele><time>2026-04-20T06:29:41+00:00</time></trkpt><trkpt lat="37.1909" lon="-82.9662"><ele>38038.6</ele><time>2026-04-20T06:34:51+00:00</time></trkpt><trkpt lat="37.5653" lon="-83.4529"><ele>38039.8</ele><time>2026-04-20T06:40:02+00:00</time></trkpt><trkpt lat="37.925" lon="-83.9491"><ele>38036.4</ele><time>2026-04-20T06:44:42+00:00</time></trkpt><trkpt lat="38.2815" lon="-84.4487"><ele>38029.8</ele><time>2026-04-20T06:49:52+00:00</time></trkpt><trkpt lat="38.6242" lon="-84.9672"><ele>38034</ele><time>2026-04-20T06:55:01+00:00</time></trkpt><trkpt lat="38.9501" lon="-85.5052"><ele>38029.1</ele><time>2026-04-20T06:59:42+00:00</time></trkpt><trkpt lat="39.2749" lon="-86.0501"><ele>38026.4</ele><time>2026-04-20T07:04:52+00:00</time></trkpt><trkpt lat="39.6151" lon="-86.6311"><ele>38031.3</ele><time>2026-04-20T07:09:51+00:00</time></trkpt><trkpt lat="39.7868" lon="-86.9283"><ele>38027.6</ele><time>2026-04-20T07:15:02+00:00</time></trkpt><trkpt lat="40.1087" lon="-87.4936"><ele>38026.8</ele><time>2026-04-20T07:19:42+00:00</time></trkpt><trkpt lat="40.4025" lon="-88.0909"><ele>38023.9</ele><time>2026-04-20T07:24:52+00:00</time></trkpt><trkpt lat="40.6434" lon="-88.7369"><ele>38027.3</ele><time>2026-04-20T07:30:02+00:00</time></trkpt><trkpt lat="40.8815" lon="-89.3895"><ele>38029.6</ele><time>2026-04-20T07:34:41+00:00</time></trkpt><trkpt lat="41.1151" lon="-90.045"><ele>38030.5</ele><time>2026-04-20T07:39:52+00:00</time></trkpt><trkpt lat="41.2951" lon="-90.7307"><ele>38026.6</ele><time>2026-04-20T07:45:02+00:00</time></trkpt><trkpt lat="41.5103" lon="-91.7919"><ele>31320</ele><time>2026-04-20T07:49:44+00:00</time></trkpt><trkpt lat="41.4662" lon="-92.6091"><ele>17997.8</ele><time>2026-04-20T07:54:55+00:00</time></trkpt><trkpt lat="41.4366" lon="-93.1064"><ele>9920.41</ele><time>2026-04-20T07:59:38+00:00</time></trkpt><trkpt lat="41.4592" lon="-93.5485"><ele>3109.87</ele><time>2026-04-20T08:04:56+00:00</time></trkpt><trkpt lat="41.5457" lon="-93.6742"><ele>917.17</ele><time>2026-04-20T08:09:42+00:00</time></trkpt><trkpt lat="41.5458" lon="-93.6742"><ele>918.65</ele><time>2026-04-20T08:14:45+00:00</time></trkpt></trkseg></trk></gpx>